createdAt,value
2017-03-20T00:00:13.993Z,2.88
2017-03-20T00:01:19.633Z,2.65
2017-03-20T00:02:25.271Z,3.43
2017-03-20T00:03:30.769Z,3.02
2017-03-20T00:04:37.102Z,2.70
2017-03-20T00:05:41.930Z,3.27
2017-03-20T00:06:47.486Z,2.72
2017-03-20T00:07:52.865Z,2.73
2017-03-20T00:08:58.509Z,2.68
2017-03-20T00:10:04.076Z,2.90
2017-03-20T00:11:09.776Z,2.92
2017-03-20T00:12:15.246Z,2.82
2017-03-20T00:13:20.777Z,2.87
2017-03-20T00:14:26.270Z,2.98
2017-03-20T00:15:31.733Z,3.02
2017-03-20T00:16:36.567Z,3.13
2017-03-20T00:17:42.145Z,2.53
2017-03-20T00:18:47.505Z,3.20
2017-03-20T00:19:53.065Z,2.40
2017-03-20T00:20:58.631Z,3.00
2017-03-20T00:22:04.331Z,3.70
2017-03-20T00:23:09.778Z,3.03
2017-03-20T00:24:15.282Z,2.85
2017-03-20T00:25:20.824Z,3.18
2017-03-20T00:26:26.413Z,2.85
2017-03-20T00:27:31.150Z,2.78
2017-03-20T00:28:36.665Z,2.50
2017-03-20T00:29:42.280Z,3.28
2017-03-20T00:30:47.833Z,3.10
2017-03-20T00:31:52.521Z,2.37
2017-03-20T00:32:58.169Z,3.60
2017-03-20T00:34:04.471Z,2.35
2017-03-20T00:35:10.094Z,2.78
2017-03-20T00:36:14.881Z,3.40
2017-03-20T00:37:20.500Z,2.93
2017-03-20T00:38:26.735Z,2.80
2017-03-20T00:39:31.482Z,3.00
2017-03-20T00:40:36.101Z,3.02
2017-03-20T00:41:40.808Z,3.15
2017-03-20T00:42:46.395Z,3.17
2017-03-20T00:43:51.825Z,2.83
2017-03-20T00:44:57.389Z,2.92
2017-03-20T00:46:02.993Z,2.70
2017-03-20T00:47:08.553Z,2.93
2017-03-20T00:48:14.129Z,3.82
2017-03-20T00:49:20.421Z,2.50
2017-03-20T00:50:25.192Z,2.20
2017-03-20T00:51:30.784Z,2.63
2017-03-20T00:52:36.123Z,2.65
2017-03-20T00:53:41.755Z,2.75
2017-03-20T00:54:47.358Z,3.25
2017-03-20T00:55:51.988Z,3.18
2017-03-20T00:56:57.589Z,2.43
2017-03-20T00:58:03.249Z,2.65
2017-03-20T00:59:08.851Z,2.88
2017-03-20T01:00:13.586Z,2.47
2017-03-20T01:01:18.962Z,2.87
2017-03-20T01:02:24.472Z,2.83
2017-03-20T01:03:29.134Z,2.78
2017-03-20T01:04:33.869Z,2.78
2017-03-20T01:05:40.280Z,3.00
2017-03-20T01:06:45.030Z,2.68
2017-03-20T01:07:49.712Z,2.37
2017-03-20T01:08:56.094Z,2.28
2017-03-20T01:10:00.838Z,2.95
2017-03-20T01:11:06.501Z,2.85
2017-03-20T01:12:12.866Z,2.50
2017-03-20T01:13:17.737Z,2.73
2017-03-20T01:14:23.321Z,2.50
2017-03-20T01:15:28.990Z,3.27
2017-03-20T01:16:34.608Z,2.50
2017-03-20T01:17:40.189Z,2.78
2017-03-20T01:18:45.690Z,2.80
2017-03-20T01:19:51.813Z,2.58
2017-03-20T01:20:56.720Z,2.73
2017-03-20T01:22:02.381Z,2.65
2017-03-20T01:23:07.840Z,3.07
2017-03-20T01:24:13.450Z,2.45
2017-03-20T01:25:18.865Z,2.87
2017-03-20T01:26:23.824Z,2.42
2017-03-20T01:27:29.518Z,2.58
2017-03-20T01:28:35.018Z,2.88
2017-03-20T01:29:40.585Z,2.37
2017-03-20T01:30:46.218Z,2.78
2017-03-20T01:31:51.876Z,2.55
2017-03-20T01:32:57.454Z,2.83
2017-03-20T01:34:02.943Z,2.58
2017-03-20T01:35:08.554Z,2.52
2017-03-20T01:36:13.934Z,2.63
2017-03-20T01:37:19.529Z,2.48
2017-03-20T01:38:25.110Z,2.50
2017-03-20T01:39:30.652Z,2.53
2017-03-20T01:40:36.104Z,2.62
2017-03-20T01:41:41.664Z,3.23
2017-03-20T01:42:47.029Z,2.48
2017-03-20T01:43:53.454Z,2.80
2017-03-20T01:44:58.186Z,3.05
2017-03-20T01:46:03.856Z,2.83
2017-03-20T01:47:09.353Z,2.88
2017-03-20T01:48:14.798Z,3.02
2017-03-20T01:49:19.617Z,2.68
2017-03-20T01:50:25.049Z,2.87
2017-03-20T01:51:31.372Z,2.93
2017-03-20T01:52:36.264Z,2.70
2017-03-20T01:53:41.826Z,2.67
2017-03-20T01:54:47.462Z,3.00
2017-03-20T01:55:52.965Z,2.95
2017-03-20T01:56:57.675Z,2.75
2017-03-20T01:58:03.146Z,2.70
2017-03-20T01:59:09.446Z,2.85
2017-03-20T02:00:14.238Z,3.25
2017-03-20T02:01:19.823Z,2.77
2017-03-20T02:02:25.312Z,3.03
2017-03-20T02:03:30.945Z,2.57
2017-03-20T02:04:36.556Z,2.75
2017-03-20T02:05:42.201Z,2.42
2017-03-20T02:06:47.740Z,2.33
2017-03-20T02:07:52.358Z,2.63
2017-03-20T02:08:57.957Z,2.53
2017-03-20T02:10:02.806Z,2.70
2017-03-20T02:11:08.324Z,2.63
2017-03-20T02:12:13.733Z,3.20
2017-03-20T02:13:19.350Z,2.27
2017-03-20T02:14:24.869Z,3.00
2017-03-20T02:15:30.417Z,4.70
2017-03-20T02:16:35.281Z,2.85
2017-03-20T02:17:40.805Z,2.90
2017-03-20T02:18:46.357Z,2.43
2017-03-20T02:19:51.932Z,3.17
2017-03-20T02:20:57.305Z,2.47
2017-03-20T02:22:03.753Z,2.70
2017-03-20T02:23:08.624Z,3.03
2017-03-20T02:24:14.169Z,2.37
2017-03-20T02:25:19.879Z,2.73
2017-03-20T02:26:26.122Z,2.80
2017-03-20T02:27:31.037Z,3.25
2017-03-20T02:28:36.642Z,3.75
2017-03-20T02:29:42.278Z,3.25
2017-03-20T02:30:48.496Z,3.47
2017-03-20T02:31:53.381Z,3.35
2017-03-20T02:32:59.768Z,3.25
2017-03-20T02:34:04.438Z,3.15
2017-03-20T02:35:09.896Z,3.00
2017-03-20T02:36:15.365Z,2.98
2017-03-20T02:37:21.862Z,2.63
2017-03-20T02:38:26.673Z,3.78
2017-03-20T02:39:32.147Z,2.90
2017-03-20T02:40:37.696Z,2.42
2017-03-20T02:41:43.165Z,3.03
2017-03-20T02:42:48.641Z,3.30
2017-03-20T02:43:54.909Z,3.17
2017-03-20T02:44:59.669Z,2.93
2017-03-20T02:46:04.368Z,3.32
2017-03-20T02:47:09.982Z,3.22
2017-03-20T02:48:15.575Z,3.58
2017-03-20T02:49:20.479Z,3.27
2017-03-20T02:50:25.840Z,3.10
2017-03-20T02:51:32.189Z,3.07
2017-03-20T02:52:36.865Z,3.07
2017-03-20T02:53:42.449Z,3.15
2017-03-20T02:54:48.020Z,3.30
2017-03-20T02:55:53.480Z,3.50
2017-03-20T02:56:58.189Z,3.10
2017-03-20T02:58:03.721Z,3.40
2017-03-20T02:59:09.167Z,2.83
2017-03-20T03:00:13.883Z,3.58
2017-03-20T03:01:19.277Z,2.97
2017-03-20T03:02:23.922Z,2.83
2017-03-20T03:03:29.430Z,2.98
2017-03-20T03:04:34.899Z,3.30
2017-03-20T03:05:39.795Z,3.20
2017-03-20T03:06:46.035Z,2.98
2017-03-20T03:07:51.614Z,3.43
2017-03-20T03:08:56.293Z,3.25
2017-03-20T03:10:01.901Z,3.00
2017-03-20T03:11:06.738Z,3.27
2017-03-20T03:12:11.949Z,3.12
2017-03-20T03:13:16.595Z,3.23
2017-03-20T03:14:22.109Z,2.85
2017-03-20T03:15:27.708Z,3.27
2017-03-20T03:16:33.249Z,3.58
2017-03-20T03:17:39.394Z,3.55
2017-03-20T03:18:44.210Z,3.40
2017-03-20T03:19:49.705Z,3.93
2017-03-20T03:20:55.245Z,3.10
2017-03-20T03:22:00.947Z,3.73
2017-03-20T03:23:06.337Z,3.63
2017-03-20T03:24:12.678Z,3.63
2017-03-20T03:25:17.425Z,3.48
2017-03-20T03:26:22.173Z,3.87
2017-03-20T03:27:27.657Z,3.77
2017-03-20T03:28:33.183Z,4.07
2017-03-20T03:29:39.497Z,4.37
2017-03-20T03:30:44.385Z,4.03
2017-03-20T03:31:49.982Z,4.20
2017-03-20T03:32:55.513Z,3.63
2017-03-20T03:34:01.010Z,3.80
2017-03-20T03:35:06.503Z,4.30
2017-03-20T03:36:12.048Z,4.10
2017-03-20T03:37:17.639Z,4.07
2017-03-20T03:38:23.224Z,4.20
2017-03-20T03:39:28.753Z,4.27
2017-03-20T03:40:33.473Z,4.50
2017-03-20T03:41:39.080Z,4.58
2017-03-20T03:42:44.637Z,4.33
2017-03-20T03:43:50.113Z,4.88
2017-03-20T03:44:54.909Z,3.72
2017-03-20T03:46:00.545Z,4.12
2017-03-20T03:47:06.109Z,4.50
2017-03-20T03:48:11.721Z,4.48
2017-03-20T03:49:18.117Z,4.20
2017-03-20T03:50:23.703Z,4.75
2017-03-20T03:51:29.217Z,4.43
2017-03-20T03:52:34.838Z,4.47
2017-03-20T03:53:41.213Z,4.38
2017-03-20T03:54:45.899Z,4.28
2017-03-20T03:55:51.344Z,4.98
2017-03-20T03:56:56.931Z,5.17
2017-03-20T03:58:02.494Z,4.75
2017-03-20T03:59:08.033Z,4.83
2017-03-20T04:00:13.737Z,5.15
2017-03-20T04:01:19.167Z,4.22
2017-03-20T04:02:24.715Z,3.98
2017-03-20T04:03:31.534Z,4.30
2017-03-20T04:04:36.787Z,5.10
2017-03-20T04:05:43.162Z,4.30
2017-03-20T04:06:47.862Z,4.70
2017-03-20T04:07:53.446Z,4.77
2017-03-20T04:08:59.053Z,4.90
2017-03-20T04:10:04.549Z,4.60
2017-03-20T04:11:10.164Z,4.30
2017-03-20T04:12:14.821Z,4.00
2017-03-20T04:13:20.246Z,3.77
2017-03-20T04:14:24.955Z,4.88
2017-03-20T04:15:30.331Z,4.30
2017-03-20T04:16:36.773Z,4.95
2017-03-20T04:17:43.153Z,4.43
2017-03-20T04:18:47.822Z,3.80
2017-03-20T04:19:53.433Z,4.12
2017-03-20T04:20:58.910Z,4.58
2017-03-20T04:22:04.582Z,4.15
2017-03-20T04:23:10.188Z,4.08
2017-03-20T04:24:15.638Z,4.27
2017-03-20T04:25:21.137Z,4.95
2017-03-20T04:26:26.696Z,4.10
2017-03-20T04:27:32.281Z,4.02
2017-03-20T04:28:36.988Z,4.02
2017-03-20T04:29:42.552Z,3.65
2017-03-20T04:30:48.936Z,3.55
2017-03-20T04:31:53.686Z,4.20
2017-03-20T04:32:59.229Z,3.92
2017-03-20T04:34:05.638Z,3.78
2017-03-20T04:35:10.386Z,4.57
2017-03-20T04:36:15.973Z,4.07
2017-03-20T04:37:22.285Z,3.93
2017-03-20T04:38:27.209Z,4.22
2017-03-20T04:39:32.787Z,3.10
2017-03-20T04:40:37.573Z,3.05
2017-03-20T04:41:43.875Z,4.03
2017-03-20T04:42:48.637Z,3.73
2017-03-20T04:43:54.095Z,3.80
2017-03-20T04:44:58.859Z,3.72
2017-03-20T04:46:04.307Z,4.08
2017-03-20T04:47:09.696Z,3.07
2017-03-20T04:48:14.606Z,3.77
2017-03-20T04:49:20.220Z,4.10
2017-03-20T04:50:25.020Z,3.32
2017-03-20T04:51:30.527Z,3.40
2017-03-20T04:52:36.063Z,4.08
2017-03-20T04:53:41.498Z,3.73
2017-03-20T04:54:47.092Z,3.98
2017-03-20T04:55:52.624Z,3.63
2017-03-20T04:56:58.241Z,3.70
2017-03-20T04:58:03.815Z,3.77
2017-03-20T04:59:09.448Z,3.12
2017-03-20T05:00:14.182Z,3.77
2017-03-20T05:01:20.568Z,4.25
2017-03-20T05:02:25.282Z,3.75
2017-03-20T05:03:29.963Z,3.52
2017-03-20T05:04:35.385Z,4.08
2017-03-20T05:05:40.146Z,3.83
2017-03-20T05:06:45.674Z,3.45
2017-03-20T05:07:51.357Z,4.32
2017-03-20T05:08:56.865Z,4.02
2017-03-20T05:10:02.304Z,3.70
2017-03-20T05:11:07.917Z,4.00
2017-03-20T05:12:13.461Z,3.80
2017-03-20T05:13:19.078Z,3.57
2017-03-20T05:14:25.241Z,4.10
2017-03-20T05:15:30.777Z,4.23
2017-03-20T05:16:36.987Z,3.78
2017-03-20T05:17:42.233Z,4.07
2017-03-20T05:18:47.814Z,3.83
2017-03-20T05:19:52.473Z,3.87
2017-03-20T05:20:58.044Z,4.13
2017-03-20T05:22:04.380Z,3.75
2017-03-20T05:23:09.370Z,3.97
2017-03-20T05:24:14.993Z,4.07
2017-03-20T05:25:20.622Z,4.15
2017-03-20T05:26:26.153Z,3.33
2017-03-20T05:27:31.796Z,3.60
2017-03-20T05:28:37.410Z,3.73
2017-03-20T05:29:43.153Z,3.28
2017-03-20T05:30:48.577Z,3.35
2017-03-20T05:31:54.189Z,4.12
2017-03-20T05:32:59.776Z,3.13
2017-03-20T05:34:05.206Z,3.68
2017-03-20T05:35:10.728Z,3.33
2017-03-20T05:36:15.453Z,3.75
2017-03-20T05:37:21.854Z,3.60
2017-03-20T05:38:27.569Z,4.03
2017-03-20T05:39:33.042Z,3.18
2017-03-20T05:40:39.380Z,3.72
2017-03-20T05:41:44.340Z,4.18
2017-03-20T05:42:49.873Z,3.58
2017-03-20T05:43:57.118Z,3.72
2017-03-20T05:45:01.949Z,3.57
2017-03-20T05:46:07.535Z,3.57
2017-03-20T05:47:12.896Z,3.92
2017-03-20T05:48:19.274Z,4.55
2017-03-20T05:49:24.222Z,3.80
2017-03-20T05:50:29.793Z,4.02
2017-03-20T05:51:35.356Z,4.33
2017-03-20T05:52:40.134Z,4.38
2017-03-20T05:53:45.798Z,4.07
2017-03-20T05:54:51.479Z,3.12
2017-03-20T05:55:56.976Z,4.00
2017-03-20T05:57:02.609Z,4.62
2017-03-20T05:58:08.169Z,4.52
2017-03-20T05:59:13.681Z,4.98
2017-03-20T06:00:18.506Z,3.93
2017-03-20T06:01:23.937Z,4.42
2017-03-20T06:02:29.457Z,4.80
2017-03-20T06:03:34.909Z,4.48
2017-03-20T06:04:40.444Z,5.22
2017-03-20T06:05:45.945Z,4.32
2017-03-20T06:06:51.521Z,4.32
2017-03-20T06:07:57.169Z,4.58
2017-03-20T06:09:02.610Z,4.67
2017-03-20T06:10:08.206Z,3.93
2017-03-20T06:11:13.873Z,3.92
2017-03-20T06:12:19.494Z,4.63
2017-03-20T06:13:24.233Z,5.15
2017-03-20T06:14:29.636Z,5.33
2017-03-20T06:15:36.017Z,4.53
2017-03-20T06:16:42.449Z,3.87
2017-03-20T06:17:47.447Z,4.85
2017-03-20T06:18:53.125Z,4.62
2017-03-20T06:19:58.642Z,5.02
2017-03-20T06:21:05.016Z,4.65
2017-03-20T06:22:09.850Z,4.35
2017-03-20T06:23:16.217Z,4.48
2017-03-20T06:24:21.805Z,4.60
2017-03-20T06:25:26.587Z,7.18
2017-03-20T06:26:32.157Z,5.05
2017-03-20T06:27:37.865Z,4.98
2017-03-20T06:28:43.213Z,5.47
2017-03-20T06:29:49.618Z,5.45
2017-03-20T06:30:54.356Z,4.68
2017-03-20T06:31:59.870Z,4.80
2017-03-20T06:33:04.900Z,4.62
2017-03-20T06:34:10.389Z,4.95
2017-03-20T06:35:15.977Z,5.80
2017-03-20T06:36:21.661Z,6.58
2017-03-20T06:37:27.286Z,5.45
2017-03-20T06:38:34.154Z,5.20
2017-03-20T06:39:39.442Z,5.50
2017-03-20T06:40:45.012Z,5.93
2017-03-20T06:41:50.609Z,5.48
2017-03-20T06:42:56.306Z,4.73
2017-03-20T06:44:03.462Z,5.02
2017-03-20T06:45:08.237Z,5.00
2017-03-20T06:46:13.829Z,4.77
2017-03-20T06:47:19.728Z,4.90
2017-03-20T06:48:24.721Z,4.67
2017-03-20T06:49:30.348Z,4.40
2017-03-20T06:50:35.928Z,4.75
2017-03-20T06:51:41.525Z,5.12
2017-03-20T06:52:46.990Z,5.00
2017-03-20T06:53:52.553Z,4.68
2017-03-20T06:54:57.973Z,5.15
2017-03-20T06:56:02.957Z,5.00
2017-03-20T06:57:08.426Z,4.92
2017-03-20T06:58:14.101Z,4.38
2017-03-20T06:59:19.617Z,4.60
2017-03-20T07:00:25.285Z,4.63
2017-03-20T07:01:30.802Z,5.48
2017-03-20T07:02:36.305Z,6.05
2017-03-20T07:03:42.658Z,4.17
2017-03-20T07:04:47.481Z,4.32
2017-03-20T07:05:53.206Z,5.33
2017-03-20T07:06:58.621Z,4.52
2017-03-20T07:08:03.253Z,4.53
2017-03-20T07:09:08.704Z,4.52
2017-03-20T07:10:13.445Z,4.27
2017-03-20T07:11:18.986Z,4.88
2017-03-20T07:12:24.621Z,5.38
2017-03-20T07:13:30.146Z,4.88
2017-03-20T07:14:35.737Z,5.02
2017-03-20T07:15:41.361Z,5.23
2017-03-20T07:16:47.920Z,4.60
2017-03-20T07:17:52.635Z,4.70
2017-03-20T07:18:58.221Z,4.60
2017-03-20T07:20:04.249Z,4.62
2017-03-20T07:21:09.453Z,4.43
2017-03-20T07:22:15.155Z,4.67
2017-03-20T07:23:20.517Z,4.90
2017-03-20T07:24:26.077Z,4.45
2017-03-20T07:25:31.604Z,5.48
2017-03-20T07:26:36.333Z,4.60
2017-03-20T07:27:41.785Z,4.80
2017-03-20T07:28:47.343Z,4.47
2017-03-20T07:29:53.722Z,4.08
2017-03-20T07:30:59.372Z,4.38
2017-03-20T07:32:04.990Z,4.17
2017-03-20T07:33:10.732Z,4.10
2017-03-20T07:34:16.077Z,4.65
2017-03-20T07:35:22.745Z,3.97
2017-03-20T07:36:27.451Z,4.35
2017-03-20T07:37:33.810Z,4.27
2017-03-20T07:38:39.466Z,4.75
2017-03-20T07:39:45.170Z,3.85
2017-03-20T07:40:50.794Z,4.12
2017-03-20T07:41:56.456Z,3.93
2017-03-20T07:43:02.738Z,3.65
2017-03-20T07:44:09.370Z,3.83
2017-03-20T07:45:14.149Z,3.65
2017-03-20T07:46:19.804Z,4.00
2017-03-20T07:47:26.203Z,4.43
2017-03-20T07:48:31.858Z,4.82
2017-03-20T07:49:36.668Z,3.58
2017-03-20T07:50:42.154Z,4.65
2017-03-20T07:51:47.776Z,4.37
2017-03-20T07:52:53.241Z,4.12
2017-03-20T07:53:58.773Z,3.98
2017-03-20T07:55:04.369Z,4.23
2017-03-20T07:56:10.029Z,3.33
2017-03-20T07:57:15.678Z,3.65
2017-03-20T07:58:21.993Z,4.72
2017-03-20T07:59:27.631Z,4.53
2017-03-20T08:00:33.287Z,3.75
2017-03-20T08:01:38.021Z,3.42
2017-03-20T08:02:43.689Z,4.25
2017-03-20T08:03:49.186Z,3.80
2017-03-20T08:04:54.602Z,3.72
2017-03-20T08:05:59.482Z,3.42
2017-03-20T08:07:05.033Z,3.88
2017-03-20T08:08:11.395Z,4.15
2017-03-20T08:09:16.245Z,3.97
2017-03-20T08:10:21.896Z,4.48
2017-03-20T08:11:26.658Z,4.43
2017-03-20T08:12:32.289Z,4.63
2017-03-20T08:13:37.826Z,5.27
2017-03-20T08:14:43.441Z,4.87
2017-03-20T08:15:49.052Z,4.07
2017-03-20T08:16:56.265Z,3.67
2017-03-20T08:18:01.097Z,4.37
2017-03-20T08:19:06.473Z,3.47
2017-03-20T08:20:13.488Z,5.08
2017-03-20T08:21:18.686Z,4.38
2017-03-20T08:22:24.259Z,3.98
2017-03-20T08:23:29.805Z,4.57
2017-03-20T08:24:35.473Z,3.88
2017-03-20T08:25:41.166Z,3.98
2017-03-20T08:26:46.598Z,4.23
2017-03-20T08:27:52.326Z,4.28
2017-03-20T08:28:57.816Z,3.85
2017-03-20T08:30:03.477Z,3.60
2017-03-20T08:31:20.742Z,4.63
2017-03-20T08:32:38.118Z,4.47
2017-03-20T08:33:54.782Z,4.47
2017-03-20T08:37:14.068Z,4.23
2017-03-20T08:38:18.852Z,5.13
2017-03-20T08:39:24.422Z,4.25
2017-03-20T08:40:29.853Z,4.12
2017-03-20T08:41:35.309Z,4.53
2017-03-20T08:42:41.692Z,3.75
2017-03-20T08:43:46.548Z,3.55
2017-03-20T08:44:53.697Z,4.50
2017-03-20T08:45:58.479Z,3.50
2017-03-20T08:47:04.098Z,4.53
2017-03-20T08:48:09.630Z,3.97
2017-03-20T08:49:14.449Z,4.10
2017-03-20T08:50:19.131Z,4.58
2017-03-20T08:51:24.543Z,4.33
2017-03-20T08:52:29.205Z,4.67
2017-03-20T08:53:34.782Z,3.97
2017-03-20T08:54:39.385Z,4.32
2017-03-20T08:55:44.172Z,4.67
2017-03-20T08:56:49.708Z,3.90
2017-03-20T08:57:54.545Z,5.55
2017-03-20T08:58:59.461Z,3.73
2017-03-20T09:00:04.775Z,4.28
2017-03-20T09:01:11.216Z,4.90
2017-03-20T09:02:16.962Z,6.15
2017-03-20T09:03:21.848Z,4.62
2017-03-20T09:04:28.052Z,4.67
2017-03-20T09:05:32.876Z,4.65
2017-03-20T09:06:39.186Z,4.32
2017-03-20T09:07:43.930Z,4.33
2017-03-20T09:08:49.573Z,4.22
2017-03-20T09:09:55.150Z,4.40
2017-03-20T09:11:01.465Z,4.77
2017-03-20T09:12:06.297Z,4.47
2017-03-20T09:13:12.663Z,4.20
2017-03-20T09:14:17.477Z,4.67
2017-03-20T09:15:23.213Z,4.30
2017-03-20T09:16:28.609Z,3.88
2017-03-20T09:17:35.295Z,4.65
2017-03-20T09:18:40.722Z,4.25
2017-03-20T09:19:46.107Z,3.93
2017-03-20T09:20:51.178Z,4.52
2017-03-20T09:21:56.457Z,4.45
2017-03-20T09:23:01.920Z,4.60
2017-03-20T09:24:06.858Z,4.57
2017-03-20T09:25:12.472Z,4.28
2017-03-20T09:26:18.065Z,4.67
2017-03-20T09:27:22.708Z,4.88
2017-03-20T09:28:28.358Z,4.73
2017-03-20T09:29:33.836Z,4.10
2017-03-20T09:30:39.352Z,4.92
2017-03-20T09:31:46.576Z,4.23
2017-03-20T09:32:51.389Z,3.90
2017-03-20T09:33:56.885Z,4.48
2017-03-20T09:35:01.730Z,4.58
2017-03-20T09:36:06.344Z,3.95
2017-03-20T09:37:15.389Z,4.18
2017-03-20T09:38:20.590Z,5.07
2017-03-20T09:39:26.248Z,4.12
2017-03-20T09:40:31.848Z,3.72
2017-03-20T09:41:37.989Z,4.28
2017-03-20T09:42:42.891Z,4.13
2017-03-20T09:43:49.198Z,4.08
2017-03-20T09:44:54.647Z,4.50
2017-03-20T09:45:59.476Z,4.30
2017-03-20T09:47:05.802Z,3.92
2017-03-20T09:48:11.355Z,3.50
2017-03-20T09:49:16.329Z,4.25
2017-03-20T09:50:21.835Z,4.25
2017-03-20T09:51:27.427Z,4.03
2017-03-20T09:52:32.997Z,3.78
2017-03-20T09:53:38.582Z,4.93
2017-03-20T09:54:44.119Z,3.95
2017-03-20T09:55:50.454Z,4.35
2017-03-20T09:56:55.401Z,4.13
2017-03-20T09:58:00.856Z,3.83
2017-03-20T09:59:06.493Z,3.92
2017-03-20T10:00:11.321Z,4.15
2017-03-20T10:01:16.788Z,4.38
2017-03-20T10:02:22.994Z,4.60
2017-03-20T10:03:27.949Z,4.32
2017-03-20T10:04:33.412Z,3.63
2017-03-20T10:05:38.972Z,4.60
2017-03-20T10:06:43.637Z,4.00
2017-03-20T10:07:49.085Z,4.80
2017-03-20T10:08:55.490Z,4.57
2017-03-20T10:10:00.308Z,4.23
2017-03-20T10:11:05.121Z,4.15
2017-03-20T10:12:10.758Z,4.32
2017-03-20T10:13:16.391Z,3.63
2017-03-20T10:14:21.678Z,4.77
2017-03-20T10:15:26.425Z,4.27
2017-03-20T10:16:31.988Z,3.68
2017-03-20T10:17:39.614Z,3.93
2017-03-20T10:18:45.161Z,4.10
2017-03-20T10:19:49.934Z,4.25
2017-03-20T10:20:55.382Z,3.68
2017-03-20T10:22:00.846Z,4.13
2017-03-20T10:23:06.374Z,4.00
2017-03-20T10:24:11.170Z,3.55
2017-03-20T10:25:16.794Z,4.03
2017-03-20T10:26:21.518Z,3.30
2017-03-20T10:27:26.921Z,4.08
2017-03-20T10:28:33.232Z,3.93
2017-03-20T10:29:37.928Z,3.60
2017-03-20T10:30:42.617Z,3.88
2017-03-20T10:31:48.030Z,4.25
2017-03-20T10:32:53.616Z,4.13
2017-03-20T10:33:59.257Z,3.43
2017-03-20T10:35:05.547Z,3.58
2017-03-20T10:36:10.344Z,3.78
2017-03-20T10:37:15.844Z,3.15
2017-03-20T10:38:21.451Z,3.98
2017-03-20T10:39:26.130Z,3.62
2017-03-20T10:40:30.885Z,3.92
2017-03-20T10:41:36.373Z,3.63
2017-03-20T10:42:42.649Z,3.70
2017-03-20T10:43:47.594Z,4.15
2017-03-20T10:44:54.785Z,3.53
2017-03-20T10:46:00.434Z,3.55
2017-03-20T10:47:05.164Z,3.10
2017-03-20T10:48:10.531Z,3.55
2017-03-20T10:49:16.802Z,2.90
2017-03-20T10:50:22.414Z,3.68
2017-03-20T10:51:27.285Z,3.37
2017-03-20T10:52:33.638Z,3.45
2017-03-20T10:53:39.421Z,3.35
2017-03-20T10:54:44.109Z,3.48
2017-03-20T10:55:50.542Z,3.90
2017-03-20T10:56:55.269Z,3.35
2017-03-20T10:58:00.776Z,3.43
2017-03-20T10:59:06.401Z,3.52
2017-03-20T11:00:12.067Z,3.98
2017-03-20T11:01:17.547Z,3.33
2017-03-20T11:02:23.026Z,3.87
2017-03-20T11:03:28.523Z,3.45
2017-03-20T11:04:34.797Z,4.00
2017-03-20T11:05:39.689Z,3.32
2017-03-20T11:06:45.169Z,4.05
2017-03-20T11:07:50.601Z,3.88
2017-03-20T11:08:56.069Z,3.57
2017-03-20T11:10:01.664Z,3.53
2017-03-20T11:11:07.072Z,3.77
2017-03-20T11:12:12.745Z,3.88
2017-03-20T11:13:18.973Z,3.78
2017-03-20T11:14:23.836Z,3.23
2017-03-20T11:15:29.417Z,3.27
2017-03-20T11:16:35.012Z,3.87
2017-03-20T11:17:41.441Z,3.38
2017-03-20T11:18:46.134Z,4.20
2017-03-20T11:19:51.737Z,4.75
2017-03-20T11:20:57.349Z,3.65
2017-03-20T11:22:02.741Z,4.28
2017-03-20T11:23:08.223Z,4.43
2017-03-20T11:24:14.598Z,3.92
2017-03-20T11:25:19.598Z,3.73
2017-03-20T11:26:24.968Z,3.12
2017-03-20T11:27:31.684Z,4.47
2017-03-20T11:28:37.245Z,3.85
2017-03-20T11:29:42.754Z,4.93
2017-03-20T11:30:48.168Z,4.27
2017-03-20T11:31:53.552Z,4.30
2017-03-20T11:32:59.794Z,4.45
2017-03-20T11:34:04.630Z,5.03
2017-03-20T11:35:10.836Z,4.32
2017-03-20T11:36:16.250Z,4.57
2017-03-20T11:37:21.101Z,5.47
2017-03-20T11:38:25.772Z,4.27
2017-03-20T11:39:32.136Z,4.47
2017-03-20T11:40:36.909Z,5.17
2017-03-20T11:41:43.151Z,5.18
2017-03-20T11:42:48.963Z,4.93
2017-03-20T11:43:53.690Z,4.45
2017-03-20T11:44:59.987Z,6.08
2017-03-20T11:46:04.841Z,5.23
2017-03-20T11:47:12.585Z,5.30
2017-03-20T11:48:18.726Z,5.17
2017-03-20T11:49:23.501Z,5.62
2017-03-20T11:50:29.165Z,5.70
2017-03-20T11:51:34.718Z,5.38
2017-03-20T11:52:39.529Z,6.20
2017-03-20T11:53:45.773Z,5.62
2017-03-20T11:54:51.209Z,6.10
2017-03-20T11:55:56.138Z,5.18
2017-03-20T11:57:01.692Z,5.87
2017-03-20T11:58:06.352Z,6.10
2017-03-20T11:59:11.972Z,5.83
2017-03-20T12:00:17.485Z,6.10
2017-03-20T12:01:23.072Z,6.10
2017-03-20T12:02:28.633Z,5.50
2017-03-20T12:03:34.257Z,5.78
2017-03-20T12:04:40.541Z,5.62
2017-03-20T12:05:46.046Z,5.78
2017-03-20T12:06:51.771Z,6.23
2017-03-20T12:07:56.471Z,5.83
2017-03-20T12:09:01.196Z,6.78
2017-03-20T12:10:06.769Z,6.53
2017-03-20T12:11:12.325Z,5.98
2017-03-20T12:12:18.018Z,6.43
2017-03-20T12:13:24.106Z,6.90
2017-03-20T12:14:28.953Z,6.88
2017-03-20T12:15:34.557Z,5.83
2017-03-20T12:16:39.249Z,6.45
2017-03-20T12:17:45.758Z,6.60
2017-03-20T12:18:51.257Z,5.83
2017-03-20T12:19:57.421Z,7.08
2017-03-20T12:21:02.166Z,5.87
2017-03-20T12:22:07.616Z,6.68
2017-03-20T12:23:12.567Z,7.62
2017-03-20T12:24:19.553Z,7.07
2017-03-20T12:25:25.389Z,7.00
2017-03-20T12:26:30.221Z,6.58
2017-03-20T12:27:35.769Z,6.25
2017-03-20T12:28:42.113Z,6.80
2017-03-20T12:29:47.520Z,6.40
2017-03-20T12:30:53.044Z,7.07
2017-03-20T12:31:57.809Z,7.88
2017-03-20T12:33:03.475Z,7.95
2017-03-20T12:34:09.750Z,8.30
2017-03-20T12:35:14.513Z,7.97
2017-03-20T12:36:19.901Z,8.37
2017-03-20T12:37:24.657Z,8.37
2017-03-20T12:38:30.249Z,8.33
2017-03-20T12:39:35.809Z,8.48
2017-03-20T12:40:41.393Z,8.72
2017-03-20T12:41:46.837Z,8.40
2017-03-20T12:42:52.369Z,7.98
2017-03-20T12:43:57.722Z,9.78
2017-03-20T12:45:04.121Z,9.00
2017-03-20T12:46:09.741Z,8.47
2017-03-20T12:47:14.522Z,8.33
2017-03-20T12:48:20.098Z,9.48
2017-03-20T12:49:25.525Z,8.50
2017-03-20T12:50:31.241Z,8.72
2017-03-20T12:51:36.673Z,8.93
2017-03-20T12:52:41.354Z,8.50
2017-03-20T12:53:46.999Z,7.27
2017-03-20T12:54:52.481Z,8.40
2017-03-20T12:55:58.193Z,8.45
2017-03-20T12:57:03.540Z,8.02
2017-03-20T12:58:09.260Z,8.52
2017-03-20T12:59:14.624Z,7.23
2017-03-20T13:00:19.353Z,7.63
2017-03-20T13:01:24.918Z,8.45
2017-03-20T13:02:30.403Z,7.77
2017-03-20T13:03:35.805Z,8.00
2017-03-20T13:04:42.073Z,7.32
2017-03-20T13:05:47.613Z,8.10
2017-03-20T13:06:53.206Z,7.32
2017-03-20T13:08:00.048Z,8.17
2017-03-20T13:09:04.837Z,7.38
2017-03-20T13:10:10.306Z,7.03
2017-03-20T13:11:15.788Z,6.97
2017-03-20T13:12:21.233Z,7.25
2017-03-20T13:13:26.625Z,7.20
2017-03-20T13:14:31.465Z,6.98
2017-03-20T13:15:37.012Z,6.60
2017-03-20T13:16:43.321Z,5.95
2017-03-20T13:17:50.029Z,6.15
2017-03-20T13:18:55.482Z,5.90
2017-03-20T13:20:00.264Z,6.50
2017-03-20T13:21:05.757Z,6.22
2017-03-20T13:22:11.406Z,5.62
2017-03-20T13:23:16.986Z,5.90
2017-03-20T13:24:22.433Z,6.03
2017-03-20T13:25:28.013Z,5.93
2017-03-20T13:26:33.414Z,6.93
2017-03-20T13:27:39.753Z,5.93
2017-03-20T13:28:44.877Z,6.45
2017-03-20T13:29:50.126Z,5.87
2017-03-20T13:30:55.501Z,5.77
2017-03-20T13:32:00.901Z,6.93
2017-03-20T13:33:06.508Z,6.00
2017-03-20T13:34:12.637Z,5.95
2017-03-20T13:35:17.641Z,7.05
2017-03-20T13:36:23.100Z,6.75
2017-03-20T13:37:28.457Z,6.28
2017-03-20T13:38:33.941Z,6.73
2017-03-20T13:39:38.668Z,7.47
2017-03-20T13:40:44.216Z,7.07
2017-03-20T13:41:49.729Z,7.53
2017-03-20T13:42:55.409Z,7.50
2017-03-20T13:44:00.837Z,7.55
2017-03-20T13:45:07.081Z,7.28
2017-03-20T13:46:11.816Z,7.47
2017-03-20T13:47:17.385Z,8.12
2017-03-20T13:48:22.964Z,7.60
2017-03-20T13:49:28.485Z,6.80
2017-03-20T13:50:34.665Z,7.40
2017-03-20T13:51:39.453Z,6.55
2017-03-20T13:52:44.193Z,6.02
2017-03-20T13:53:49.824Z,6.93
2017-03-20T13:54:55.377Z,7.25
2017-03-20T13:56:00.932Z,6.85
2017-03-20T13:57:06.406Z,6.85
2017-03-20T13:58:11.993Z,6.13
2017-03-20T13:59:18.213Z,5.95
2017-03-20T14:00:23.751Z,6.30
2017-03-20T14:01:28.741Z,6.05
2017-03-20T14:02:34.224Z,7.18
2017-03-20T14:03:39.789Z,6.02
2017-03-20T14:04:45.224Z,5.97
2017-03-20T14:05:50.004Z,6.53
2017-03-20T14:06:56.347Z,6.55
2017-03-20T14:08:02.015Z,6.40
2017-03-20T14:09:06.701Z,6.48
2017-03-20T14:10:12.241Z,6.10
2017-03-20T14:11:17.670Z,6.70
2017-03-20T14:12:23.109Z,6.03
2017-03-20T14:13:30.277Z,5.67
2017-03-20T14:14:35.150Z,6.70
2017-03-20T14:15:39.785Z,6.88
2017-03-20T14:16:44.568Z,6.88
2017-03-20T14:17:52.069Z,6.55
2017-03-20T14:18:57.550Z,6.65
2017-03-20T14:20:02.229Z,7.15
2017-03-20T14:21:08.502Z,7.17
2017-03-20T14:22:13.270Z,6.98
2017-03-20T14:23:18.749Z,5.87
2017-03-20T14:24:24.289Z,6.32
2017-03-20T14:25:29.860Z,6.80
2017-03-20T14:26:34.510Z,6.53
2017-03-20T14:27:40.070Z,5.97
2017-03-20T14:28:46.328Z,6.52
2017-03-20T14:29:51.101Z,6.50
2017-03-20T14:30:56.542Z,6.57
2017-03-20T14:32:01.916Z,6.27
2017-03-20T14:33:07.437Z,5.93
2017-03-20T14:34:12.976Z,6.72